EPWR/WRO METAR and TAF weather

Enter ICAO airport designator
Station Type Date Time Source
EPWR METAR 2018/04/19 13:30 UTC NOAA

EPWR 191330Z 32010KT CAVOK 23/12 Q1029


Station Type Date Time Source
EPWR Decoded METAR 2018/04/19 13:30 UTC NOAA

Wroclaw Ii, Poland (EPWR) 51-06N 016-53E 121M
Apr 19, 2018 - 09:30 AM EDT / 2018.04.19 1330 UTC
Wind: from the NW (320 degrees) at 12 MPH (10 KT):0
Visibility: greater than 7 mile(s):0
Temperature: 73 F (23 C)
Dew Point: 53 F (12 C)
Relative Humidity: 49%
Pressure (altimeter): 30.39 in. Hg (1029 hPa)
ob: EPWR 191330Z 32010KT CAVOK 23/12 Q1029
cycle: 13

Station Type Date Time Source
EPWR TAF 2018/04/19 12:33 UTC NOAA

TAF EPWR 191130Z 1912/2012 34010KT CAVOK
BECMG 1918/1921 VRB02KT
BECMG 2007/2010 15010KT


Example: see airport list